Time;durP1;ratioP1;P1;durP2;ratioP2;P2;SDS_P1;SDS_P2;PMS_P1;PMS_P2;Temp;Humidity;BMP_temperature;BMP_pressure;BME280_temperature;BME280_humidity;BME280_pressure;Samples;Min_cycle;Max_cycle;Signal;HPM_P1;HPM_P2
2022/06/29 00:01:07;;;;;;;1.20;0.73;;;;;;;18.66;86.27;101511.34;20966184;28;20552;-76
2022/06/29 00:11:09;;;;;;;0.95;0.85;;;;;;;18.66;86.16;101502.38;20965597;28;20102;-76
2022/06/29 00:21:10;;;;;;;1.95;0.95;;;;;;;18.65;86.14;101489.88;20966104;28;20062;-76
2022/06/29 00:31:12;;;;;;;1.83;0.70;;;;;;;18.65;86.18;101488.06;20953918;28;20044;-76
2022/06/29 00:41:13;;;;;;;1.63;0.90;;;;;;;18.65;86.03;101482.66;20962610;28;20124;-76
2022/06/29 00:51:16;;;;;;;1.08;0.85;;;;;;;18.63;86.12;101463.06;20963266;28;20508;-76
2022/06/29 01:01:18;;;;;;;1.25;0.73;;;;;;;18.63;85.92;101459.50;20945672;28;20056;-76
2022/06/29 01:11:20;;;;;;;1.30;0.80;;;;;;;18.57;85.88;101452.78;20961937;28;20044;-75
2022/06/29 01:21:22;;;;;;;0.80;0.70;;;;;;;18.36;85.79;101415.81;20962325;28;20098;-76
2022/06/29 01:31:24;;;;;;;0.95;0.70;;;;;;;18.61;85.98;101438.06;20862129;28;20464;-78
2022/06/29 01:41:25;;;;;;;1.08;0.60;;;;;;;18.55;85.97;101425.06;20877525;28;20049;-76
2022/06/29 01:51:27;;;;;;;0.80;0.80;;;;;;;18.60;85.92;101432.78;20879469;28;20151;-75
2022/06/29 02:01:29;;;;;;;1.33;0.85;;;;;;;18.46;85.92;101406.97;20879048;28;20056;-76
2022/06/29 02:11:31;;;;;;;1.75;0.95;;;;;;;18.46;85.78;101405.13;20876547;28;20051;-76
2022/06/29 02:21:32;;;;;;;0.80;0.70;;;;;;;18.59;85.68;101417.59;20887629;28;20079;-75
2022/06/29 02:41:54;;;;;;;1.38;0.70;;;;;;;18.41;85.67;101373.16;20891594;28;20464;-75
2022/06/29 02:51:56;;;;;;;1.40;0.52;;;;;;;18.56;85.75;101391.75;20890581;28;20045;-76
2022/06/29 03:01:57;;;;;;;1.27;0.90;;;;;;;18.33;85.62;101361.28;20889760;28;20508;-75
2022/06/29 03:11:59;;;;;;;1.17;0.60;;;;;;;18.57;85.33;101381.81;20888375;28;20057;-75
2022/06/29 03:22:01;;;;;;;0.82;0.60;;;;;;;18.56;85.43;101372.88;20868415;28;20444;-75
2022/06/29 03:32:03;;;;;;;2.38;1.88;;;;;;;18.46;82.52;101358.44;20876361;28;20072;-76
2022/06/29 03:42:05;;;;;;;4.43;1.90;;;;;;;18.32;82.42;101356.88;20880234;28;20047;-76
2022/06/29 03:52:06;;;;;;;3.97;1.80;;;;;;;18.18;82.42;101348.13;20875156;28;20055;-76
2022/06/29 04:02:08;;;;;;;2.15;1.60;;;;;;;17.92;82.24;101299.06;20868784;28;20057;-76
2022/06/29 04:12:10;;;;;;;4.20;2.50;;;;;;;18.00;82.39;101331.59;20803676;28;20516;-76
2022/06/29 04:22:12;;;;;;;5.07;2.08;;;;;;;17.91;82.58;101329.69;20858916;28;20069;-76
2022/06/29 04:32:13;;;;;;;4.30;2.47;;;;;;;17.88;82.91;101327.22;20812384;28;21715;-76
2022/06/29 04:42:15;;;;;;;2.90;2.22;;;;;;;17.84;83.34;101315.84;20787107;28;20515;-76
2022/06/29 04:52:18;;;;;;;4.00;2.30;;;;;;;17.80;83.75;101327.84;20821148;28;20057;-75
2022/06/29 05:02:20;;;;;;;2.63;1.75;;;;;;;17.81;84.05;101316.97;20754835;28;20123;-77
2022/06/29 05:12:22;;;;;;;3.22;2.03;;;;;;;17.81;84.02;101300.81;20755650;28;20053;-75
2022/06/29 05:22:23;;;;;;;3.75;1.73;;;;;;;17.85;84.32;101312.16;20765734;28;20057;-75
2022/06/29 05:32:25;;;;;;;2.90;2.20;;;;;;;17.87;84.42;101302.13;20768839;28;20046;-76
2022/06/29 05:42:27;;;;;;;3.40;1.60;;;;;;;17.87;84.82;101285.97;20776978;28;20468;-76
2022/06/29 05:52:28;;;;;;;4.03;2.05;;;;;;;17.89;85.16;101284.00;20789001;28;20045;-76
2022/06/29 06:02:30;;;;;;;2.90;2.00;;;;;;;17.91;85.82;101283.88;20811918;28;20442;-76
2022/06/29 06:12:32;;;;;;;3.22;1.98;;;;;;;17.92;86.25;101278.38;20860765;28;20053;-76
2022/06/29 06:22:33;;;;;;;3.08;1.92;;;;;;;17.78;85.98;101252.59;20860816;28;20127;-76
2022/06/29 06:32:35;;;;;;;3.90;2.28;;;;;;;17.83;85.75;101250.38;20864845;28;20421;-76
2022/06/29 06:42:37;;;;;;;2.72;2.10;;;;;;;18.05;87.71;101275.53;20861580;28;20129;-75
2022/06/29 06:52:39;;;;;;;3.30;1.75;;;;;;;18.15;87.42;101280.19;20819396;28;20196;-75
2022/06/29 07:02:40;;;;;;;5.15;1.85;;;;;;;18.24;87.03;101274.00;20770592;28;20063;-76
2022/06/29 07:12:42;;;;;;;2.67;1.70;;;;;;;18.29;87.04;101261.00;20852927;28;20483;-75
2022/06/29 07:22:44;;;;;;;1.83;1.30;;;;;;;18.39;86.90;101264.59;20772367;28;20045;-73
2022/06/29 07:32:45;;;;;;;1.80;1.38;;;;;;;18.49;86.63;101259.28;20859201;28;20044;-73
2022/06/29 07:42:47;;;;;;;4.70;1.33;;;;;;;18.66;86.09;101263.22;20850532;28;20445;-73
2022/06/29 07:52:49;;;;;;;4.88;1.50;;;;;;;18.67;85.68;101242.50;20875140;28;20440;-73
2022/06/29 08:02:51;;;;;;;1.38;1.27;;;;;;;18.82;85.08;101256.50;20856348;28;20387;-74
2022/06/29 08:12:53;;;;;;;2.92;1.30;;;;;;;18.71;84.88;101241.25;20853376;28;20708;-73
2022/06/29 08:22:55;;;;;;;1.45;1.10;;;;;;;18.80;85.44;101253.09;20860726;28;20099;-73
2022/06/29 08:32:56;;;;;;;4.38;1.38;;;;;;;18.88;85.57;101234.38;20863357;28;20578;-73
2022/06/29 08:42:58;;;;;;;1.85;1.35;;;;;;;18.87;85.70;101223.75;20850963;28;20049;-73
2022/06/29 08:53:05;;;;;;;2.70;1.30;;;;;;;18.79;85.86;101221.69;20866730;28;20565;-73
2022/06/29 09:03:07;;;;;;;1.58;1.48;;;;;;;18.79;85.76;101219.88;20849662;28;20087;-73
2022/06/29 09:13:09;;;;;;;3.30;1.30;;;;;;;18.72;86.00;101201.66;20873655;28;20048;-73
2022/06/29 09:23:11;;;;;;;2.53;1.40;;;;;;;18.74;85.91;101221.25;20875876;28;20099;-73
2022/06/29 09:33:13;;;;;;;1.25;1.13;;;;;;;18.72;85.72;101228.63;20834471;28;20379;-73
2022/06/29 09:43:14;;;;;;;2.08;1.42;;;;;;;18.71;85.36;101219.66;20790469;28;20064;-73
2022/06/29 09:53:18;;;;;;;1.75;1.25;;;;;;;18.69;85.22;101198.25;20792019;28;20409;-73
2022/06/29 10:03:19;;;;;;;2.10;1.70;;;;;;;18.66;85.35;101187.72;20825001;28;20052;-74
2022/06/29 10:13:40;;;;;;;2.00;1.50;;;;;;;18.51;85.67;101148.59;20842007;28;20052;-74
2022/06/29 10:23:53;;;;;;;2.28;1.40;;;;;;;18.69;85.88;101173.97;20875901;28;20128;-74
2022/06/29 10:33:55;;;;;;;2.63;1.40;;;;;;;18.70;86.06;101166.72;20877615;28;20055;-73
2022/06/29 10:43:56;;;;;;;1.48;1.30;;;;;;;18.69;86.24;101163.19;20874803;28;20132;-72
2022/06/29 10:53:58;;;;;;;2.40;1.50;;;;;;;18.47;86.92;101133.69;20849065;28;20053;-74
2022/06/29 11:04:22;;;;;;;1.98;1.50;;;;;;;18.67;87.47;101162.47;20839452;28;20135;-74
2022/06/29 11:24:58;;;;;;;1.55;1.45;;;;;;;18.61;87.88;101135.19;20870804;28;20064;-74
2022/06/29 11:35:00;;;;;;;2.30;1.77;;;;;;;18.39;87.82;101089.41;20854907;28;20041;-74
2022/06/29 11:45:06;;;;;;;1.95;1.75;;;;;;;18.41;87.74;101082.03;20883891;28;20049;-74
2022/06/29 11:55:07;;;;;;;2.45;1.80;;;;;;;18.53;87.97;101096.28;20882359;28;20044;-74
2022/06/29 12:05:09;;;;;;;4.07;2.00;;;;;;;18.69;88.08;101106.56;20880761;28;20048;-73
2022/06/29 12:15:11;;;;;;;2.30;1.77;;;;;;;18.70;88.45;101102.88;20878046;28;20048;-73
2022/06/29 12:25:12;;;;;;;4.20;2.55;;;;;;;18.57;89.56;101059.13;20876108;28;20091;-74
2022/06/29 12:35:14;;;;;;;6.93;3.10;;;;;;;18.73;92.03;101076.63;20881929;28;20631;-75
2022/06/29 12:45:16;;;;;;;5.32;3.22;;;;;;;18.66;92.93;101068.22;20872947;28;20099;-73
2022/06/29 12:55:20;;;;;;;6.15;3.13;;;;;;;18.75;92.41;101085.41;20872196;28;20065;-73
2022/06/29 13:05:22;;;;;;;6.28;3.40;;;;;;;18.77;92.13;101086.13;20874104;28;20049;-73
2022/06/29 13:15:23;;;;;;;4.10;3.00;;;;;;;18.78;91.61;101079.75;20859067;28;20539;-73
2022/06/29 13:25:25;;;;;;;3.45;2.42;;;;;;;18.79;91.03;101081.44;20870344;28;20502;-75
2022/06/29 13:35:26;;;;;;;4.47;3.00;;;;;;;18.82;91.51;101067.69;20879869;28;20048;-74
2022/06/29 13:45:28;;;;;;;4.18;3.00;;;;;;;18.87;92.23;101070.81;20877898;28;20049;-74
2022/06/29 13:55:30;;;;;;;4.15;2.88;;;;;;;18.92;92.16;101063.16;20877652;28;20057;-75
2022/06/29 14:05:31;;;;;;;5.10;2.75;;;;;;;18.96;92.02;101058.34;20858398;28;20188;-76
2022/06/29 14:15:33;;;;;;;7.15;3.63;;;;;;;19.01;91.96;101061.50;20824595;28;20044;-74
2022/06/29 14:25:34;;;;;;;3.72;2.97;;;;;;;19.04;91.82;101060.38;20869515;28;20052;-74
2022/06/29 14:35:36;;;;;;;3.10;2.80;;;;;;;19.09;92.18;101047.31;20864827;28;20053;-76
2022/06/29 14:45:39;;;;;;;3.72;3.00;;;;;;;19.20;94.87;101038.22;20803597;28;20050;-75
2022/06/29 14:55:41;;;;;;;3.50;2.90;;;;;;;19.27;94.48;101037.53;20825614;28;20094;-75
2022/06/29 15:05:42;;;;;;;3.22;2.90;;;;;;;19.34;95.84;101028.84;20813125;28;20045;-75
2022/06/29 15:15:46;;;;;;;4.82;3.35;;;;;;;19.38;98.72;101025.72;20823995;28;20052;-75
2022/06/29 15:25:48;;;;;;;3.17;2.78;;;;;;;19.39;99.29;101013.94;20834949;28;20135;-75
2022/06/29 15:46:11;;;;;;;3.17;2.88;;;;;;;19.40;97.69;101006.69;20771699;28;20079;-74
2022/06/29 15:56:12;;;;;;;3.90;2.90;;;;;;;19.39;96.78;101005.84;20807147;28;20147;-75
2022/06/29 16:06:14;;;;;;;4.13;2.88;;;;;;;19.35;96.78;101007.13;20823713;28;20488;-75
2022/06/29 16:16:17;;;;;;;2.97;2.70;;;;;;;19.13;96.41;100981.28;20859680;28;20060;-75
2022/06/29 16:26:18;;;;;;;3.38;2.88;;;;;;;19.25;96.58;100999.03;20791434;28;20135;-75
2022/06/29 16:36:20;;;;;;;5.78;2.88;;;;;;;19.06;95.97;100972.06;20780646;28;20500;-75
2022/06/29 16:46:21;;;;;;;3.08;2.78;;;;;;;19.20;95.50;100987.81;20783062;28;20560;-76
2022/06/29 16:56:23;;;;;;;3.38;2.60;;;;;;;19.16;94.87;100983.69;20777720;28;20052;-75
2022/06/29 17:06:25;;;;;;;3.53;2.75;;;;;;;19.15;94.25;100984.69;20776665;28;20449;-75
2022/06/29 17:16:26;;;;;;;3.70;2.60;;;;;;;19.12;94.06;100972.31;20781832;28;20053;-75
2022/06/29 17:26:28;;;;;;;3.72;2.65;;;;;;;19.12;93.85;100958.00;20794188;28;20049;-75
2022/06/29 17:36:30;;;;;;;2.60;2.30;;;;;;;19.10;93.67;100954.59;20849027;28;20536;-75
2022/06/29 17:46:31;;;;;;;3.22;2.58;;;;;;;19.03;93.36;100935.41;20834284;28;20064;-75
2022/06/29 17:56:33;;;;;;;2.92;2.28;;;;;;;19.04;93.44;100937.09;20872755;28;20123;-75
2022/06/29 18:06:34;;;;;;;3.45;2.38;;;;;;;19.07;93.80;100938.69;20853556;28;20501;-75
2022/06/29 18:16:36;;;;;;;2.90;2.58;;;;;;;19.03;95.42;100923.78;20880155;28;20049;-75
2022/06/29 18:26:39;;;;;;;3.63;2.63;;;;;;;19.21;95.41;100949.03;20903298;28;20142;-75
2022/06/29 18:36:42;;;;;;;3.45;2.13;;;;;;;19.27;94.82;100947.63;20887382;28;20045;-76
2022/06/29 18:46:43;;;;;;;2.28;2.08;;;;;;;19.24;94.54;100935.25;20887957;28;20045;-75
2022/06/29 18:56:45;;;;;;;3.13;2.83;;;;;;;19.33;94.71;100929.97;20886631;28;20052;-75
2022/06/29 19:06:46;;;;;;;2.30;2.00;;;;;;;19.08;94.60;100895.34;20866682;28;20063;-76
2022/06/29 19:16:49;;;;;;;2.90;2.35;;;;;;;19.32;94.55;100950.72;20927555;28;20053;-76
2022/06/29 19:26:50;;;;;;;2.80;2.40;;;;;;;19.13;94.63;100938.09;20898696;28;20049;-76
2022/06/29 19:36:52;;;;;;;3.90;2.20;;;;;;;19.13;95.25;100940.81;20885949;28;20132;-76
2022/06/29 19:46:53;;;;;;;4.03;2.53;;;;;;;19.10;95.55;100949.19;20885081;28;20036;-74
2022/06/29 19:56:57;;;;;;;2.30;2.10;;;;;;;19.14;95.74;100958.69;20896967;28;20141;-76
2022/06/29 20:06:58;;;;;;;2.83;2.50;;;;;;;19.11;96.06;100965.22;20824659;28;20094;-75
2022/06/29 20:17:00;;;;;;;2.97;2.67;;;;;;;19.09;96.37;100960.97;20880910;28;20057;-75
2022/06/29 20:27:02;;;;;;;2.45;2.25;;;;;;;18.89;96.56;100923.16;20883658;28;20056;-75
2022/06/29 20:37:04;;;;;;;3.47;2.88;;;;;;;19.07;96.70;100954.88;20883154;28;20563;-75
2022/06/29 20:47:06;;;;;;;3.53;2.70;;;;;;;19.06;96.92;100955.88;20835555;28;20053;-75
2022/06/29 20:57:10;;;;;;;2.67;2.47;;;;;;;19.04;97.26;100947.06;20830706;28;20098;-75
2022/06/29 21:07:13;;;;;;;3.22;2.50;;;;;;;19.04;97.45;100964.09;20882115;28;20567;-75
2022/06/29 21:17:16;;;;;;;3.10;2.80;;;;;;;19.03;97.69;100962.38;20880556;28;20064;-75
2022/06/29 21:27:18;;;;;;;2.80;2.60;;;;;;;18.86;98.18;100939.63;20894853;28;20037;-75
2022/06/29 21:37:20;;;;;;;3.50;2.80;;;;;;;19.02;98.39;100970.63;20896950;28;20064;-75
2022/06/29 21:47:21;;;;;;;3.20;2.90;;;;;;;18.84;98.35;100947.03;20895970;28;20057;-75
2022/06/29 21:57:23;;;;;;;4.40;2.88;;;;;;;18.78;98.61;100936.81;20896625;28;20083;-75
2022/06/29 22:07:25;;;;;;;3.17;2.88;;;;;;;19.01;99.04;100993.22;20873590;28;20052;-75
2022/06/29 22:17:27;;;;;;;3.40;3.10;;;;;;;18.99;99.06;100993.34;20893760;28;20068;-75
2022/06/29 22:27:28;;;;;;;3.65;3.00;;;;;;;18.98;98.89;100991.66;20892669;28;20041;-75
2022/06/29 22:37:31;;;;;;;3.55;2.90;;;;;;;18.98;98.63;100992.47;20892041;28;20049;-76
2022/06/29 22:47:32;;;;;;;3.50;3.20;;;;;;;18.96;98.32;100983.66;20891367;28;20098;-75
2022/06/29 22:57:34;;;;;;;3.20;2.90;;;;;;;18.96;98.21;100978.25;20889289;28;20648;-75
2022/06/29 23:07:35;;;;;;;3.85;3.50;;;;;;;18.83;98.09;100977.69;20890005;28;20061;-75
2022/06/29 23:17:37;;;;;;;3.78;3.47;;;;;;;18.96;97.78;100972.03;20891040;28;20115;-75
2022/06/29 23:27:39;;;;;;;3.60;3.30;;;;;;;18.96;97.43;100967.47;20889526;28;20107;-75
2022/06/29 23:37:40;;;;;;;3.80;3.50;;;;;;;18.96;97.16;100972.84;20887588;28;20044;-75
2022/06/29 23:47:42;;;;;;;3.35;3.08;;;;;;;18.91;97.09;100961.63;20884469;28;20053;-75
2022/06/29 23:57:44;;;;;;;3.25;2.88;;;;;;;18.84;97.06;100961.38;20843699;28;20053;-75
